Time;durP1;ratioP1;P1;durP2;ratioP2;P2;SDS_P1;SDS_P2;PMS_P1;PMS_P2;Temp;Humidity;BMP_temperature;BMP_pressure;BME280_temperature;BME280_humidity;BME280_pressure;Samples;Min_cycle;Max_cycle;Signal;HPM_P1;HPM_P2
2020/12/15 00:01:21;;;;;;;58.17;23.30;;;;;;;0.06;100.00;99871.28;1598079;89;21050;-69
2020/12/15 00:03:49;;;;;;;61.10;24.92;;;;;;;0.06;100.00;99868.58;1637359;87;20979;-68
2020/12/15 00:06:18;;;;;;;59.00;24.92;;;;;;;0.05;100.00;99873.16;1637307;87;21096;-69
2020/12/15 00:08:45;;;;;;;53.90;23.15;;;;;;;0.07;100.00;99876.97;1637269;87;21136;-69
2020/12/15 00:11:19;;;;;;;57.83;24.70;;;;;;;0.05;100.00;99885.30;1637253;87;21579;-69
2020/12/15 00:13:48;;;;;;;59.38;24.27;;;;;;;0.04;100.00;99884.20;1637169;87;20993;-68
2020/12/15 00:16:19;;;;;;;62.00;26.23;;;;;;;0.03;100.00;99879.33;1637233;87;21100;-68
2020/12/15 00:18:47;;;;;;;62.62;25.62;;;;;;;0.05;100.00;99883.95;1637318;87;21516;-68
2020/12/15 00:21:22;;;;;;;69.03;25.70;;;;;;;0.03;100.00;99890.12;1637251;87;21151;-67
2020/12/15 00:23:51;;;;;;;56.88;23.87;;;;;;;0.00;100.00;99887.37;1637260;87;21321;-68
2020/12/15 00:26:19;;;;;;;56.45;22.70;;;;;;;-0.01;100.00;99886.29;1637160;87;21128;-68
2020/12/15 00:28:48;;;;;;;44.30;21.25;;;;;;;0.00;100.00;99890.63;1637177;87;21517;-69
2020/12/15 00:31:17;;;;;;;54.13;24.67;;;;;;;0.02;100.00;99891.19;1637178;87;21103;-68
2020/12/15 00:33:46;;;;;;;54.50;21.73;;;;;;;0.02;100.00;99894.41;1637289;87;21568;-69
2020/12/15 00:36:19;;;;;;;47.60;20.68;;;;;;;0.03;100.00;99898.75;1637291;87;21186;-69
2020/12/15 00:38:47;;;;;;;48.00;21.90;;;;;;;0.04;100.00;99899.86;1611785;87;20989;-68
2020/12/15 00:41:15;;;;;;;52.25;23.10;;;;;;;0.04;100.00;99901.74;1637230;87;21632;-69
2020/12/15 00:43:42;;;;;;;52.75;22.60;;;;;;;0.04;100.00;99901.74;1637194;87;21164;-68
2020/12/15 00:46:14;;;;;;;56.42;24.18;;;;;;;0.03;100.00;99900.92;1611273;87;21612;-69
2020/12/15 00:48:43;;;;;;;55.10;24.67;;;;;;;0.04;100.00;99894.47;1637472;87;21440;-67
2020/12/15 00:51:18;;;;;;;57.13;24.63;;;;;;;0.05;100.00;99898.80;1637132;87;21654;-68
2020/12/15 00:53:47;;;;;;;54.83;23.92;;;;;;;0.06;100.00;99895.05;1637237;86;21002;-68
2020/12/15 00:56:16;;;;;;;48.95;23.90;;;;;;;0.06;100.00;99897.75;1611398;87;21124;-68
2020/12/15 00:58:44;;;;;;;49.98;23.02;;;;;;;0.05;100.00;99900.16;1637223;87;21607;-68
2020/12/15 01:01:12;;;;;;;47.98;21.85;;;;;;;0.05;100.00;99896.11;1637206;87;21378;-67
2020/12/15 01:03:41;;;;;;;46.53;21.27;;;;;;;0.08;100.00;99894.28;1629178;87;21575;-67
2020/12/15 01:06:10;;;;;;;50.23;22.52;;;;;;;0.12;100.00;99891.92;1600491;89;20986;-67
2020/12/15 01:08:38;;;;;;;45.35;19.80;;;;;;;0.12;100.00;99890.58;1599161;89;21109;-67
2020/12/15 01:11:08;;;;;;;43.80;20.72;;;;;;;0.11;100.00;99893.80;1598284;89;21102;-67
2020/12/15 01:13:36;;;;;;;51.55;22.40;;;;;;;0.10;100.00;99889.98;1599191;89;21299;-68
2020/12/15 01:16:06;;;;;;;53.55;22.22;;;;;;;0.08;100.00;99890.23;1599069;89;21208;-68
2020/12/15 01:18:37;;;;;;;53.20;23.38;;;;;;;0.07;100.00;99887.77;1599150;89;21197;-67
2020/12/15 01:21:07;;;;;;;48.10;22.32;;;;;;;0.06;100.00;99881.55;1599248;89;21106;-68
2020/12/15 01:23:35;;;;;;;58.65;24.10;;;;;;;0.08;100.00;99886.18;1599188;89;21657;-67
2020/12/15 01:26:04;;;;;;;49.33;21.25;;;;;;;0.08;100.00;99887.53;1599150;89;22355;-67
2020/12/15 01:28:34;;;;;;;51.30;22.02;;;;;;;0.08;100.00;99877.27;1584790;89;21256;-68
2020/12/15 01:31:02;;;;;;;52.48;23.07;;;;;;;0.08;100.00;99877.27;1599146;89;21234;-67
2020/12/15 01:33:52;;;;;;;53.90;22.48;;;;;;;0.13;100.00;99882.23;1870951;76;22722;-67
2020/12/15 01:36:31;;;;;;;48.52;21.80;;;;;;;0.10;100.00;99877.84;1809587;78;21068;-67
2020/12/15 01:39:00;;;;;;;46.83;21.00;;;;;;;0.10;100.00;99881.89;1826990;78;21494;-68
2020/12/15 01:41:31;;;;;;;48.00;20.90;;;;;;;0.12;100.00;99879.77;1826058;78;21129;-68
2020/12/15 01:44:04;;;;;;;54.90;23.62;;;;;;;0.13;100.00;99888.98;1827320;78;20916;-69
2020/12/15 01:46:34;;;;;;;51.33;21.80;;;;;;;0.12;100.00;99880.59;1826684;78;20983;-67
2020/12/15 01:49:02;;;;;;;53.52;23.02;;;;;;;0.12;100.00;99879.77;1827319;78;21576;-67
2020/12/15 01:51:32;;;;;;;46.35;21.73;;;;;;;0.09;100.00;99881.60;1795405;78;21267;-67
2020/12/15 01:54:03;;;;;;;52.45;23.02;;;;;;;0.09;100.00;99874.85;1826909;78;20978;-69
2020/12/15 01:56:33;;;;;;;56.10;25.68;;;;;;;0.09;100.00;99877.55;1826720;78;21026;-68
2020/12/15 01:59:05;;;;;;;53.92;22.87;;;;;;;0.07;100.00;99876.44;1772399;78;20979;-68
2020/12/15 02:01:45;;;;;;;58.40;22.55;;;;;;;0.07;100.00;99879.67;1827344;78;20978;-69
2020/12/15 02:04:15;;;;;;;49.77;22.48;;;;;;;0.05;100.00;99877.21;1826711;78;21279;-69
2020/12/15 02:07:06;;;;;;;53.20;23.42;;;;;;;0.10;100.00;99877.84;1873743;76;22636;-67
2020/12/15 02:09:34;;;;;;;52.35;22.15;;;;;;;0.06;100.00;99876.68;1811439;78;21067;-69
2020/12/15 02:12:03;;;;;;;59.38;24.30;;;;;;;0.07;100.00;99882.38;1839651;78;21232;-69
2020/12/15 02:14:32;;;;;;;54.70;22.95;;;;;;;0.05;100.00;99885.84;1811296;78;20967;-67
2020/12/15 02:17:00;;;;;;;54.73;23.77;;;;;;;0.04;100.00;99885.02;1841646;78;20944;-65
2020/12/15 02:19:29;;;;;;;51.30;22.48;;;;;;;0.04;100.00;99880.97;1837126;78;21561;-67
2020/12/15 02:22:00;;;;;;;59.55;23.85;;;;;;;0.06;100.00;99883.42;1841670;78;21015;-67
2020/12/15 02:24:29;;;;;;;60.70;24.15;;;;;;;0.06;100.00;99883.42;1841454;77;21402;-67
2020/12/15 02:26:59;;;;;;;59.15;25.70;;;;;;;0.07;100.00;99879.67;1840693;78;21546;-67
2020/12/15 02:29:28;;;;;;;57.75;24.32;;;;;;;0.08;100.00;99886.18;1840653;78;21063;-67
2020/12/15 02:31:56;;;;;;;55.10;23.35;;;;;;;0.08;100.00;99887.53;1841691;78;20909;-68
2020/12/15 02:34:26;;;;;;;60.15;26.52;;;;;;;0.10;100.00;99885.41;1815665;78;21082;-67
2020/12/15 02:36:55;;;;;;;57.83;23.92;;;;;;;0.10;100.00;99893.51;1808617;79;21358;-68
2020/12/15 02:39:24;;;;;;;60.17;24.75;;;;;;;0.09;100.00;99885.66;1806979;79;20956;-67
2020/12/15 02:41:58;;;;;;;53.20;22.90;;;;;;;0.09;100.00;99885.66;1807134;79;21569;-67
2020/12/15 02:44:25;;;;;;;65.55;25.40;;;;;;;0.10;100.00;99885.94;1808584;79;21050;-67
2020/12/15 02:47:00;;;;;;;61.48;25.02;;;;;;;0.07;100.00;99880.49;1807510;79;21003;-67
2020/12/15 02:49:30;;;;;;;53.60;22.75;;;;;;;0.08;100.00;99886.18;1808617;79;21349;-67
2020/12/15 02:51:59;;;;;;;53.92;21.57;;;;;;;0.08;100.00;99878.61;1808532;79;21150;-67
2020/12/15 02:54:43;;;;;;;63.30;23.70;;;;;;;0.14;100.00;99879.00;1873713;76;22718;-67
2020/12/15 02:57:10;;;;;;;55.65;23.45;;;;;;;0.11;100.00;99875.44;1841700;78;20916;-67
2020/12/15 02:59:39;;;;;;;54.85;23.18;;;;;;;0.15;100.00;99877.41;1841692;78;21173;-67
2020/12/15 03:02:09;;;;;;;56.10;22.98;;;;;;;0.18;100.00;99878.82;1841652;78;20983;-66
2020/12/15 03:04:38;;;;;;;63.02;24.23;;;;;;;0.18;100.00;99877.47;1841640;78;21007;-67
2020/12/15 03:07:06;;;;;;;58.95;23.30;;;;;;;0.18;100.00;99880.17;1841635;78;20928;-67
2020/12/15 03:09:39;;;;;;;55.55;23.05;;;;;;;0.17;100.00;99883.92;1840407;78;21062;-68
2020/12/15 03:12:09;;;;;;;56.23;22.40;;;;;;;0.15;100.00;99884.16;1839443;78;21354;-67
2020/12/15 03:14:38;;;;;;;57.93;21.02;;;;;;;0.14;100.00;99879.00;1840721;78;20981;-68
2020/12/15 03:17:08;;;;;;;51.33;20.62;;;;;;;0.13;100.00;99882.77;1841626;78;20933;-68
2020/12/15 03:19:37;;;;;;;48.23;20.43;;;;;;;0.12;100.00;99888.69;1841626;78;21503;-68
2020/12/15 03:22:06;;;;;;;48.55;19.90;;;;;;;0.12;100.00;99890.58;1841702;78;20964;-68
2020/12/15 03:24:35;;;;;;;58.10;23.83;;;;;;;0.12;100.00;99894.63;1841526;78;22407;-67
2020/12/15 03:27:03;;;;;;;60.60;24.82;;;;;;;0.12;100.00;99891.92;1841596;78;20940;-68
2020/12/15 03:29:33;;;;;;;55.38;22.82;;;;;;;0.11;100.00;99890.28;1841692;78;21459;-68
2020/12/15 03:32:01;;;;;;;55.48;24.18;;;;;;;0.09;100.00;99896.45;1841609;78;20928;-68
2020/12/15 03:34:31;;;;;;;59.65;24.92;;;;;;;0.07;100.00;99899.39;1814727;78;20913;-67
2020/12/15 03:37:00;;;;;;;59.70;25.55;;;;;;;0.08;100.00;99905.61;1808652;79;22317;-69
2020/12/15 03:39:28;;;;;;;58.65;24.60;;;;;;;0.08;100.00;99907.78;1808574;79;21578;-69
2020/12/15 03:41:56;;;;;;;56.55;22.93;;;;;;;0.08;100.00;99905.08;1808641;79;20979;-67
2020/12/15 03:44:25;;;;;;;49.30;20.57;;;;;;;0.08;100.00;99908.30;1808633;79;21571;-67
2020/12/15 03:46:58;;;;;;;55.20;23.92;;;;;;;0.09;100.00;99904.02;1779518;79;21102;-67
2020/12/15 03:49:26;;;;;;;60.30;23.55;;;;;;;0.09;100.00;99906.72;1808606;79;21553;-67
2020/12/15 03:51:55;;;;;;;51.73;22.80;;;;;;;0.12;100.00;99909.47;1808518;79;20991;-67
2020/12/15 03:54:29;;;;;;;46.10;19.12;;;;;;;0.11;100.00;99903.78;1808386;79;20968;-67
2020/12/15 03:57:25;;;;;;;62.33;23.52;;;;;;;0.13;100.00;99903.83;1873809;76;22664;-67
2020/12/15 03:59:55;;;;;;;53.92;23.40;;;;;;;0.11;100.00;99906.48;1828920;78;20920;-68
2020/12/15 04:02:23;;;;;;;65.42;24.72;;;;;;;0.09;100.00;99912.65;1841695;78;22366;-68
2020/12/15 04:04:52;;;;;;;54.88;22.98;;;;;;;0.11;100.00;99915.40;1841641;78;20987;-67
2020/12/15 04:07:20;;;;;;;72.58;27.95;;;;;;;0.12;100.00;99911.64;1841667;78;20984;-66
2020/12/15 04:09:48;;;;;;;84.55;29.52;;;;;;;0.13;100.00;99918.69;1831914;76;21625;-68
2020/12/15 04:12:16;;;;;;;89.65;26.87;;;;;;;0.13;100.00;99922.73;1821199;78;20917;-68
2020/12/15 04:14:44;;;;;;;72.30;26.68;;;;;;;0.14;100.00;99924.91;1808619;79;21370;-67
2020/12/15 04:17:13;;;;;;;68.57;26.68;;;;;;;0.12;100.00;99922.44;1808696;79;21083;-67
2020/12/15 04:19:42;;;;;;;68.85;25.40;;;;;;;0.11;100.00;99923.50;1808572;79;21435;-67
2020/12/15 04:22:11;;;;;;;68.83;24.30;;;;;;;0.12;100.00;99931.89;1808667;79;20933;-68
2020/12/15 04:24:40;;;;;;;76.37;27.48;;;;;;;0.13;100.00;99935.41;1807161;78;20976;-67
2020/12/15 04:27:10;;;;;;;85.30;27.22;;;;;;;0.13;100.00;99934.06;1808410;79;21618;-67
2020/12/15 04:29:38;;;;;;;88.33;29.50;;;;;;;0.11;100.00;99941.58;1830301;76;21561;-67
2020/12/15 04:32:17;;;;;;;65.47;26.00;;;;;;;0.14;100.00;99935.70;1873677;75;22709;-68
2020/12/15 04:34:46;;;;;;;68.35;26.35;;;;;;;0.09;100.00;99945.04;1809797;78;20940;-67
2020/12/15 04:37:15;;;;;;;62.90;24.80;;;;;;;0.09;100.00;99958.54;1808670;79;22066;-67
2020/12/15 04:39:52;;;;;;;59.03;24.65;;;;;;;0.16;100.00;99956.53;1888742;76;22796;-67
2020/12/15 04:42:22;;;;;;;75.05;26.27;;;;;;;0.13;100.00;99956.48;1774860;80;21132;-68
2020/12/15 04:44:51;;;;;;;67.82;25.52;;;;;;;0.15;100.00;99960.29;1773022;81;21395;-68
2020/12/15 04:47:34;;;;;;;67.58;26.23;;;;;;;0.15;100.00;99962.98;1773931;80;21037;-68
2020/12/15 04:50:10;;;;;;;69.85;24.63;;;;;;;0.13;100.00;99961.05;1772961;81;21180;-66
2020/12/15 04:52:59;;;;;;;82.50;27.45;;;;;;;0.11;100.00;99961.30;1772594;80;20983;-69
2020/12/15 04:55:44;;;;;;;98.60;27.62;;;;;;;0.10;100.00;99965.58;1772977;81;21152;-71
2020/12/15 04:58:12;;;;;;;92.05;27.52;;;;;;;0.09;100.00;99972.86;1747355;80;21372;-70
2020/12/15 05:00:40;;;;;;;89.75;30.32;;;;;;;0.11;100.00;99973.44;1722297;81;21485;-69
2020/12/15 05:03:16;;;;;;;83.80;28.83;;;;;;;0.10;100.00;99975.03;1775047;80;20930;-69
2020/12/15 05:05:43;;;;;;;81.42;26.48;;;;;;;0.10;100.00;99977.73;1774015;81;20938;-70
2020/12/15 05:08:11;;;;;;;80.85;24.98;;;;;;;0.12;100.00;99980.48;1747375;80;21053;-70
2020/12/15 05:10:47;;;;;;;112.92;30.48;;;;;;;0.15;100.00;99980.02;1704650;80;21152;-71
2020/12/15 05:13:33;;;;;;;123.40;32.45;;;;;;;0.19;100.00;99978.48;1890133;76;22637;-69
2020/12/15 05:16:01;;;;;;;114.97;30.50;;;;;;;0.16;100.00;99982.18;1861052;77;20947;-69
2020/12/15 05:18:43;;;;;;;;;;;;;;;0.15;100.00;99975.14;1862800;77;21382;-69
2020/12/15 05:21:15;;;;;;;71.92;23.10;;;;;;;0.17;100.00;99978.42;1860440;77;20126;-68
2020/12/15 05:23:51;;;;;;;118.45;31.68;;;;;;;0.17;100.00;99980.59;1851083;76;20944;-68
2020/12/15 05:26:27;;;;;;;86.42;26.27;;;;;;;0.18;100.00;99980.06;1827207;78;20947;-68
2020/12/15 05:29:07;;;;;;;76.97;24.40;;;;;;;0.18;100.00;99986.81;1826667;78;21033;-67
2020/12/15 05:31:40;;;;;;;130.32;32.53;;;;;;;0.20;100.00;99983.34;1826928;78;21192;-67
2020/12/15 05:34:27;;;;;;;82.62;27.75;;;;;;;0.19;100.00;99983.88;1842627;77;20933;-66
2020/12/15 05:37:14;;;;;;;95.72;26.97;;;;;;;0.19;100.00;99989.81;1847308;77;20878;-66
2020/12/15 05:40:04;;;;;;;85.70;26.95;;;;;;;0.28;100.00;99993.26;1873699;76;22726;-66
2020/12/15 05:42:33;;;;;;;88.35;29.02;;;;;;;0.24;100.00;100002.07;1839136;78;20909;-70
2020/12/15 05:45:02;;;;;;;81.30;30.00;;;;;;;0.24;100.00;100010.17;1811366;78;21260;-66
2020/12/15 05:47:33;;;;;;;75.67;27.02;;;;;;;0.23;100.00;100009.34;1811509;78;21447;-67
2020/12/15 05:50:02;;;;;;;73.25;27.73;;;;;;;0.24;100.00;100015.57;1841332;78;20901;-67
2020/12/15 05:52:30;;;;;;;80.77;27.95;;;;;;;0.26;100.00;100018.86;1841655;78;21043;-67
2020/12/15 05:55:11;;;;;;;85.60;29.85;;;;;;;0.27;100.00;100019.15;1841692;78;20999;-68
2020/12/15 05:57:44;;;;;;;92.70;30.25;;;;;;;0.30;100.00;100021.38;1841648;78;21328;-67
2020/12/15 06:00:12;;;;;;;94.05;30.88;;;;;;;0.31;100.00;100025.19;1767053;78;20950;-67
2020/12/15 06:02:41;;;;;;;78.70;28.25;;;;;;;0.29;100.00;100028.66;1841675;78;20935;-67
2020/12/15 06:05:10;;;;;;;65.87;26.20;;;;;;;0.29;100.00;100037.28;1841643;78;20976;-67
2020/12/15 06:07:38;;;;;;;58.23;24.87;;;;;;;0.28;100.00;100036.99;1841677;78;20956;-69
2020/12/15 06:10:06;;;;;;;59.42;25.23;;;;;;;0.26;100.00;100037.76;1811523;78;21256;-69
2020/12/15 06:12:34;;;;;;;61.05;25.90;;;;;;;0.26;100.00;100043.16;1841599;78;21491;-69
2020/12/15 06:15:03;;;;;;;58.10;25.90;;;;;;;0.25;100.00;100046.92;1841650;78;20912;-69
2020/12/15 06:17:31;;;;;;;70.28;27.75;;;;;;;0.24;100.00;100050.67;1841698;78;21478;-69
2020/12/15 06:20:00;;;;;;;57.70;25.43;;;;;;;0.26;100.00;100055.31;1811931;78;21562;-69
2020/12/15 06:22:27;;;;;;;65.25;26.00;;;;;;;0.25;100.00;100055.84;1841604;78;22149;-69
2020/12/15 06:24:56;;;;;;;53.17;22.58;;;;;;;0.26;100.00;100060.71;1811589;78;20889;-69
2020/12/15 06:27:34;;;;;;;78.22;27.37;;;;;;;0.28;100.00;100067.52;1841722;78;21051;-69
2020/12/15 06:30:06;;;;;;;68.57;26.93;;;;;;;0.28;100.00;100063.47;1841652;78;21050;-66
2020/12/15 06:32:34;;;;;;;61.13;25.97;;;;;;;0.27;100.00;100069.92;1841950;77;20865;-69
2020/12/15 06:35:11;;;;;;;57.95;24.40;;;;;;;0.28;100.00;100070.75;1808568;79;21419;-65
2020/12/15 06:37:36;;;;;;;54.55;23.73;;;;;;;0.29;100.00;100080.49;1807491;79;20904;-67
2020/12/15 06:40:05;;;;;;;58.50;25.15;;;;;;;0.29;100.00;100080.49;1801480;78;20951;-68
2020/12/15 06:42:36;;;;;;;54.80;23.38;;;;;;;0.26;100.00;100082.31;1761783;79;20943;-67
2020/12/15 06:45:09;;;;;;;49.90;21.73;;;;;;;0.27;100.00;100091.53;1783095;79;21050;-66
2020/12/15 06:47:37;;;;;;;54.95;22.82;;;;;;;0.32;100.00;100088.95;1785420;79;21564;-74
2020/12/15 06:50:15;;;;;;;57.38;22.10;;;;;;;0.34;100.00;100091.41;1800147;79;20955;-73
2020/12/15 06:52:43;;;;;;;69.07;27.52;;;;;;;0.34;100.00;100096.81;1774833;79;20919;-78
2020/12/15 06:55:10;;;;;;;77.60;27.10;;;;;;;0.38;100.00;100097.98;1753680;81;21010;-76
2020/12/15 06:57:39;;;;;;;55.80;22.73;;;;;;;0.41;100.00;100094.00;1791385;79;20987;-68
2020/12/15 07:00:12;;;;;;;49.90;22.20;;;;;;;0.38;100.00;100093.94;1797291;79;21367;-67
2020/12/15 07:02:43;;;;;;;44.65;20.32;;;;;;;0.36;100.00;100092.00;1753620;80;21591;-67
2020/12/15 07:05:24;;;;;;;48.30;21.10;;;;;;;0.36;100.00;100097.41;1768732;81;20893;-67
2020/12/15 07:07:53;;;;;;;56.02;24.07;;;;;;;0.41;100.00;100094.81;1768512;81;21479;-67
2020/12/15 07:10:25;;;;;;;51.48;22.58;;;;;;;0.49;100.00;100101.22;1768474;81;20924;-67
2020/12/15 07:12:53;;;;;;;54.75;24.87;;;;;;;0.53;100.00;100101.56;1768679;81;21190;-67
2020/12/15 07:15:21;;;;;;;48.42;21.37;;;;;;;0.53;100.00;100105.62;1768522;79;20900;-67
2020/12/15 07:17:51;;;;;;;58.58;25.40;;;;;;;0.54;100.00;100101.33;1768476;81;20987;-68
2020/12/15 07:20:19;;;;;;;55.05;26.37;;;;;;;0.55;100.00;100104.85;1768458;81;21000;-67
2020/12/15 07:22:47;;;;;;;67.97;28.95;;;;;;;0.54;100.00;100106.73;1768468;81;20988;-68
2020/12/15 07:25:16;;;;;;;74.37;33.02;;;;;;;0.57;100.00;100107.61;1768480;81;22576;-67
2020/12/15 07:27:44;;;;;;;75.00;33.90;;;;;;;0.59;100.00;100105.99;1742775;81;20948;-66
2020/12/15 07:30:16;;;;;;;77.00;34.73;;;;;;;0.56;100.00;100110.02;1768544;81;21459;-68
2020/12/15 07:32:44;;;;;;;62.55;28.30;;;;;;;0.58;100.00;100114.63;1768286;81;20948;-73
2020/12/15 07:35:23;;;;;;;58.50;27.22;;;;;;;0.59;100.00;100109.52;1767877;81;20948;-75
2020/12/15 07:37:56;;;;;;;60.23;28.17;;;;;;;0.60;100.00;100108.98;1768570;81;21809;-70
2020/12/15 07:40:23;;;;;;;57.50;25.85;;;;;;;0.60;100.00;100108.45;1768338;81;21358;-72
2020/12/15 07:43:01;;;;;;;51.33;24.25;;;;;;;0.62;100.00;100111.74;1768336;81;21070;-70
2020/12/15 07:45:31;;;;;;;56.90;26.90;;;;;;;0.65;100.00;100112.63;1768425;81;21134;-73
2020/12/15 07:47:59;;;;;;;53.70;23.32;;;;;;;0.64;100.00;100107.45;1768367;81;21005;-71
2020/12/15 07:50:30;;;;;;;58.42;26.68;;;;;;;0.65;100.00;100117.20;1768409;81;21197;-73
2020/12/15 07:53:10;;;;;;;59.77;28.30;;;;;;;0.66;100.00;100114.27;1768415;81;20965;-72
2020/12/15 07:55:40;;;;;;;57.78;26.93;;;;;;;0.75;100.00;100127.42;1768513;81;21115;-73
2020/12/15 07:58:15;;;;;;;66.70;30.97;;;;;;;0.75;100.00;100127.42;1768340;81;20981;-73
2020/12/15 08:00:43;;;;;;;61.92;29.40;;;;;;;0.74;100.00;100123.07;1768481;81;20937;-76
2020/12/15 08:03:11;;;;;;;55.88;25.43;;;;;;;0.74;100.00;100129.83;1768427;81;21832;-73
2020/12/15 08:05:39;;;;;;;48.23;23.15;;;;;;;0.75;100.00;100126.89;1768348;81;21021;-69
2020/12/15 08:08:06;;;;;;;48.38;21.25;;;;;;;0.78;100.00;100121.53;1768329;80;21166;-72
2020/12/15 08:10:35;;;;;;;52.43;24.27;;;;;;;0.82;100.00;100130.81;1768399;81;20929;-73
2020/12/15 08:13:05;;;;;;;49.33;22.50;;;;;;;0.88;100.00;100136.09;1768360;81;20929;-74
2020/12/15 08:15:38;;;;;;;46.02;21.23;;;;;;;0.89;100.00;100146.38;1768349;81;21372;-67
2020/12/15 08:18:10;;;;;;;46.10;22.25;;;;;;;0.89;100.00;100146.38;1768443;81;21159;-70
2020/12/15 08:20:40;;;;;;;52.15;22.73;;;;;;;0.87;100.00;100147.97;1768472;81;21033;-70
2020/12/15 08:23:15;;;;;;;47.20;21.30;;;;;;;0.87;100.00;100142.56;1742997;81;20989;-70
2020/12/15 08:25:44;;;;;;;48.40;22.02;;;;;;;0.86;100.00;100137.39;1768459;81;21021;-71
2020/12/15 08:28:21;;;;;;;50.92;22.90;;;;;;;0.89;100.00;100140.44;1768377;81;21263;-70
2020/12/15 08:30:50;;;;;;;50.95;21.15;;;;;;;0.92;100.00;100137.79;1768363;80;20984;-69
2020/12/15 08:33:27;;;;;;;50.78;21.60;;;;;;;0.90;100.00;100138.56;1768286;81;20989;-73
2020/12/15 08:35:58;;;;;;;41.73;19.40;;;;;;;0.90;100.00;100142.08;1765381;81;21578;-75
2020/12/15 08:38:27;;;;;;;56.02;23.47;;;;;;;0.95;100.00;100142.19;1768327;81;20977;-70
2020/12/15 08:41:00;;;;;;;57.90;25.40;;;;;;;0.98;100.00;100139.55;1768449;81;21377;-66
2020/12/15 08:43:29;;;;;;;58.05;25.45;;;;;;;0.98;100.00;100137.66;1770919;79;21489;-72
2020/12/15 08:45:58;;;;;;;66.30;28.83;;;;;;;1.04;100.00;100141.30;1731864;81;21030;-68
2020/12/15 08:48:26;;;;;;;59.05;25.37;;;;;;;1.04;99.97;100139.94;1751310;81;21138;-68
2020/12/15 08:50:54;;;;;;;68.40;28.98;;;;;;;1.05;99.85;100142.12;1730650;82;21461;-68
2020/12/15 08:53:21;;;;;;;77.17;30.37;;;;;;;1.03;99.62;100141.00;1749083;81;21496;-68
2020/12/15 08:55:50;;;;;;;77.15;29.80;;;;;;;1.02;99.52;100135.30;1745264;81;21129;-68
2020/12/15 08:58:19;;;;;;;71.80;29.07;;;;;;;1.04;99.51;100133.71;1730667;82;20992;-68
2020/12/15 09:00:47;;;;;;;71.12;26.05;;;;;;;1.05;99.44;100135.36;1730496;82;20992;-68
2020/12/15 09:03:17;;;;;;;86.92;31.10;;;;;;;1.07;99.42;100136.77;1730494;82;21187;-68
2020/12/15 09:05:51;;;;;;;85.30;31.15;;;;;;;1.09;99.46;100135.99;1727574;82;21265;-68
2020/12/15 09:08:21;;;;;;;84.92;30.72;;;;;;;1.15;99.57;100134.22;1730556;82;21573;-69
2020/12/15 09:10:50;;;;;;;77.50;32.13;;;;;;;1.17;99.48;100134.77;1730522;81;21020;-69
2020/12/15 09:13:18;;;;;;;105.83;40.67;;;;;;;1.22;99.58;100131.63;1752836;81;21576;-70
2020/12/15 09:15:56;;;;;;;110.65;42.43;;;;;;;1.25;99.49;100124.92;1730401;82;21192;-69
2020/12/15 09:18:37;;;;;;;107.05;40.35;;;;;;;1.26;99.42;100120.62;1760488;81;21387;-69
2020/12/15 09:21:12;;;;;;;90.70;35.28;;;;;;;1.27;99.28;100116.86;1730270;83;21105;-69
2020/12/15 09:23:48;;;;;;;77.82;30.10;;;;;;;1.31;99.21;100122.08;1760568;81;21559;-69
2020/12/15 09:26:17;;;;;;;71.57;29.20;;;;;;;1.31;98.95;100122.08;1716886;83;20946;-71
2020/12/15 09:28:45;;;;;;;74.82;31.35;;;;;;;1.28;98.67;100127.14;1756636;80;21134;-71
2020/12/15 09:31:14;;;;;;;71.00;27.62;;;;;;;1.30;98.67;100129.90;1751379;81;21291;-70
2020/12/15 09:33:45;;;;;;;77.12;32.08;;;;;;;1.31;98.67;100127.48;1731821;82;20997;-70
2020/12/15 09:36:16;;;;;;;74.32;29.87;;;;;;;1.33;98.62;100126.72;1731830;82;20934;-70
2020/12/15 09:38:46;;;;;;;70.35;29.10;;;;;;;1.30;98.33;100128.55;1732085;82;21160;-68
2020/12/15 09:41:14;;;;;;;60.50;27.22;;;;;;;1.32;98.37;100136.42;1731922;82;21477;-69
2020/12/15 09:43:43;;;;;;;50.00;23.75;;;;;;;1.37;98.67;100132.47;1731197;82;21361;-68
2020/12/15 09:46:10;;;;;;;54.90;24.02;;;;;;;1.40;98.66;100130.62;1731335;82;21029;-67
2020/12/15 09:48:38;;;;;;;57.80;23.98;;;;;;;1.43;98.61;100130.68;1731134;82;21179;-68
2020/12/15 09:51:05;;;;;;;48.63;22.22;;;;;;;1.45;98.51;100132.08;1731675;82;21092;-67
2020/12/15 09:53:34;;;;;;;49.27;22.75;;;;;;;1.47;98.38;100131.31;1744922;81;20914;-69
2020/12/15 09:56:02;;;;;;;54.08;24.65;;;;;;;1.46;98.19;100132.91;1762137;81;21379;-68
2020/12/15 09:58:31;;;;;;;49.15;22.95;;;;;;;1.46;98.10;100132.91;1760332;81;21509;-69
2020/12/15 10:01:01;;;;;;;51.28;24.27;;;;;;;1.47;98.11;100122.37;1757647;81;20994;-70
2020/12/15 10:03:29;;;;;;;59.42;26.52;;;;;;;1.52;98.17;100127.88;1747217;81;21128;-71
2020/12/15 10:05:56;;;;;;;59.95;26.50;;;;;;;1.53;97.95;100130.88;1762221;81;21658;-68
2020/12/15 10:08:24;;;;;;;54.95;26.12;;;;;;;1.52;97.73;100125.99;1762126;81;21201;-70
2020/12/15 10:10:52;;;;;;;49.27;23.90;;;;;;;1.54;97.69;100121.69;1762090;81;21489;-68
2020/12/15 10:13:19;;;;;;;49.77;22.70;;;;;;;1.54;97.57;100121.69;1762113;81;21156;-72
2020/12/15 10:15:48;;;;;;;53.95;26.55;;;;;;;1.56;97.50;100126.33;1762054;81;21021;-70
2020/12/15 10:18:16;;;;;;;74.65;32.28;;;;;;;1.54;97.21;100126.58;1762097;81;21072;-72
2020/12/15 10:20:43;;;;;;;59.35;28.25;;;;;;;1.52;97.14;100127.34;1761209;81;21200;-70
2020/12/15 10:23:10;;;;;;;59.95;27.35;;;;;;;1.53;97.11;100127.63;1761753;81;20977;-72
2020/12/15 10:25:38;;;;;;;64.27;28.00;;;;;;;1.50;96.94;100133.53;1762208;81;21548;-70
2020/12/15 10:28:06;;;;;;;61.65;27.25;;;;;;;1.49;96.92;100129.72;1762253;81;20942;-71
2020/12/15 10:30:34;;;;;;;64.67;26.10;;;;;;;1.44;96.73;100129.09;1762269;81;21504;-73
2020/12/15 10:33:03;;;;;;;66.47;29.27;;;;;;;1.40;96.65;100126.58;1762256;81;21198;-72
2020/12/15 10:35:31;;;;;;;54.05;25.27;;;;;;;1.36;96.57;100124.59;1762287;81;21564;-70
2020/12/15 10:37:59;;;;;;;60.08;25.68;;;;;;;1.30;96.39;100122.31;1762248;81;21132;-71
2020/12/15 10:40:26;;;;;;;56.83;24.52;;;;;;;1.24;96.46;100130.86;1764899;80;21160;-71
2020/12/15 10:42:54;;;;;;;54.95;24.63;;;;;;;1.23;96.84;100131.92;1767653;81;21512;-69
2020/12/15 10:45:22;;;;;;;49.00;22.45;;;;;;;1.24;97.04;100133.56;1767695;80;21441;-70
2020/12/15 10:47:50;;;;;;;53.70;24.25;;;;;;;1.25;97.10;100129.80;1767707;81;21575;-69
2020/12/15 10:50:18;;;;;;;54.98;24.32;;;;;;;1.26;97.06;100131.45;1767696;81;21132;-70
2020/12/15 10:52:45;;;;;;;49.53;22.70;;;;;;;1.28;97.20;100133.38;1767638;81;21061;-71
2020/12/15 10:55:13;;;;;;;48.48;22.37;;;;;;;1.31;97.23;100137.48;1767715;79;21077;-68
2020/12/15 10:57:41;;;;;;;47.95;22.95;;;;;;;1.32;97.13;100135.06;1767681;81;21155;-70
2020/12/15 11:00:09;;;;;;;51.70;23.92;;;;;;;1.31;96.98;100137.48;1754057;81;21577;-67
2020/12/15 11:02:37;;;;;;;44.77;21.57;;;;;;;1.31;97.06;100134.78;1735627;82;21043;-68
2020/12/15 11:05:05;;;;;;;47.45;22.25;;;;;;;1.33;96.98;100139.42;1735637;82;20944;-68
2020/12/15 11:07:32;;;;;;;45.05;21.48;;;;;;;1.30;96.83;100133.95;1735783;82;21082;-69
2020/12/15 11:10:00;;;;;;;50.75;22.77;;;;;;;1.30;96.92;100136.66;1735598;82;21208;-69
2020/12/15 11:12:29;;;;;;;46.68;21.05;;;;;;;1.32;97.00;100141.83;1735649;82;21098;-71
2020/12/15 11:14:56;;;;;;;46.75;20.25;;;;;;;1.37;97.14;100145.17;1735824;81;21078;-71
2020/12/15 11:17:23;;;;;;;40.83;19.12;;;;;;;1.37;97.07;100147.34;1753200;81;21124;-69
2020/12/15 11:19:51;;;;;;;47.62;21.80;;;;;;;1.40;97.07;100151.45;1736190;82;21104;-71
2020/12/15 11:22:18;;;;;;;42.48;19.87;;;;;;;1.41;97.23;100146.33;1759150;81;21211;-72
2020/12/15 11:24:46;;;;;;;47.48;21.23;;;;;;;1.40;97.07;100150.92;1766142;81;21180;-71
2020/12/15 11:27:13;;;;;;;41.00;19.30;;;;;;;1.39;96.96;100147.10;1759161;81;20969;-71
2020/12/15 11:29:41;;;;;;;46.68;21.87;;;;;;;1.36;96.69;100151.64;1735875;82;21044;-70